sensor_id;sensor_type;location;lat;lon;timestamp;P1;durP1;ratioP1;P2;durP2;ratioP2
80494;SDS011;69819;48.798;11.770;2023-05-07T00:00:37;3.63;;;3.33;;
80494;SDS011;69819;48.798;11.770;2023-05-07T00:03:03;3.70;;;3.20;;
80494;SDS011;69819;48.798;11.770;2023-05-07T00:05:29;4.00;;;3.15;;
80494;SDS011;69819;48.798;11.770;2023-05-07T00:07:55;3.45;;;3.15;;
80494;SDS011;69819;48.798;11.770;2023-05-07T00:10:21;3.03;;;2.83;;
80494;SDS011;69819;48.798;11.770;2023-05-07T00:12:46;4.90;;;3.72;;
80494;SDS011;69819;48.798;11.770;2023-05-07T00:15:12;3.85;;;3.53;;
80494;SDS011;69819;48.798;11.770;2023-05-07T00:17:38;3.33;;;3.13;;
80494;SDS011;69819;48.798;11.770;2023-05-07T00:20:04;3.58;;;3.28;;
80494;SDS011;69819;48.798;11.770;2023-05-07T00:22:31;3.70;;;3.40;;
80494;SDS011;69819;48.798;11.770;2023-05-07T00:24:57;3.85;;;3.45;;
80494;SDS011;69819;48.798;11.770;2023-05-07T00:27:24;6.68;;;3.97;;
80494;SDS011;69819;48.798;11.770;2023-05-07T00:29:50;4.68;;;3.60;;
80494;SDS011;69819;48.798;11.770;2023-05-07T00:32:16;3.65;;;3.20;;
80494;SDS011;69819;48.798;11.770;2023-05-07T00:34:42;2.95;;;2.75;;
80494;SDS011;69819;48.798;11.770;2023-05-07T00:37:08;4.53;;;3.50;;
80494;SDS011;69819;48.798;11.770;2023-05-07T00:39:34;5.97;;;3.53;;
80494;SDS011;69819;48.798;11.770;2023-05-07T00:42:01;4.30;;;3.72;;
80494;SDS011;69819;48.798;11.770;2023-05-07T00:44:28;3.22;;;2.97;;
80494;SDS011;69819;48.798;11.770;2023-05-07T00:46:54;4.13;;;3.60;;
80494;SDS011;69819;48.798;11.770;2023-05-07T00:49:22;3.85;;;3.25;;
80494;SDS011;69819;48.798;11.770;2023-05-07T00:52:10;4.38;;;3.67;;
80494;SDS011;69819;48.798;11.770;2023-05-07T00:54:40;5.40;;;3.67;;
80494;SDS011;69819;48.798;11.770;2023-05-07T00:57:07;3.83;;;3.53;;
80494;SDS011;69819;48.798;11.770;2023-05-07T00:59:36;4.65;;;3.50;;
80494;SDS011;69819;48.798;11.770;2023-05-07T01:02:03;4.00;;;3.47;;
80494;SDS011;69819;48.798;11.770;2023-05-07T01:04:29;3.63;;;3.33;;
80494;SDS011;69819;48.798;11.770;2023-05-07T01:06:55;3.97;;;3.60;;
80494;SDS011;69819;48.798;11.770;2023-05-07T01:09:25;5.30;;;3.28;;
80494;SDS011;69819;48.798;11.770;2023-05-07T01:11:52;4.15;;;3.75;;
80494;SDS011;69819;48.798;11.770;2023-05-07T01:14:20;5.70;;;3.25;;
80494;SDS011;69819;48.798;11.770;2023-05-07T01:16:46;3.53;;;3.10;;
80494;SDS011;69819;48.798;11.770;2023-05-07T01:19:16;3.28;;;2.83;;
80494;SDS011;69819;48.798;11.770;2023-05-07T01:21:47;3.90;;;3.10;;
80494;SDS011;69819;48.798;11.770;2023-05-07T01:24:14;5.20;;;3.22;;
80494;SDS011;69819;48.798;11.770;2023-05-07T01:26:41;4.28;;;3.00;;
80494;SDS011;69819;48.798;11.770;2023-05-07T01:29:09;3.60;;;3.20;;
80494;SDS011;69819;48.798;11.770;2023-05-07T01:31:35;3.50;;;3.20;;
80494;SDS011;69819;48.798;11.770;2023-05-07T01:34:02;3.35;;;2.85;;
80494;SDS011;69819;48.798;11.770;2023-05-07T01:36:31;3.30;;;3.00;;
80494;SDS011;69819;48.798;11.770;2023-05-07T01:38:58;3.30;;;3.08;;
80494;SDS011;69819;48.798;11.770;2023-05-07T01:41:25;3.42;;;2.45;;
80494;SDS011;69819;48.798;11.770;2023-05-07T01:43:51;4.60;;;2.70;;
80494;SDS011;69819;48.798;11.770;2023-05-07T01:46:18;3.92;;;2.97;;
80494;SDS011;69819;48.798;11.770;2023-05-07T01:48:45;3.65;;;3.35;;
80494;SDS011;69819;48.798;11.770;2023-05-07T01:51:11;3.60;;;2.67;;
80494;SDS011;69819;48.798;11.770;2023-05-07T01:53:38;3.05;;;2.75;;
80494;SDS011;69819;48.798;11.770;2023-05-07T01:56:05;3.95;;;2.88;;
80494;SDS011;69819;48.798;11.770;2023-05-07T01:58:32;4.40;;;2.58;;
80494;SDS011;69819;48.798;11.770;2023-05-07T02:00:58;3.78;;;3.47;;
80494;SDS011;69819;48.798;11.770;2023-05-07T02:03:24;7.25;;;3.50;;
80494;SDS011;69819;48.798;11.770;2023-05-07T02:05:53;3.60;;;3.30;;
80494;SDS011;69819;48.798;11.770;2023-05-07T02:08:19;4.50;;;3.55;;
80494;SDS011;69819;48.798;11.770;2023-05-07T02:10:44;3.72;;;3.33;;
80494;SDS011;69819;48.798;11.770;2023-05-07T02:13:10;4.60;;;3.65;;
80494;SDS011;69819;48.798;11.770;2023-05-07T02:15:36;3.78;;;3.47;;
80494;SDS011;69819;48.798;11.770;2023-05-07T02:18:06;3.85;;;3.53;;
80494;SDS011;69819;48.798;11.770;2023-05-07T02:20:34;4.18;;;3.53;;
80494;SDS011;69819;48.798;11.770;2023-05-07T02:23:00;3.75;;;3.38;;
80494;SDS011;69819;48.798;11.770;2023-05-07T02:25:26;3.60;;;3.30;;
80494;SDS011;69819;48.798;11.770;2023-05-07T02:27:52;6.97;;;3.50;;
80494;SDS011;69819;48.798;11.770;2023-05-07T02:30:17;5.25;;;3.28;;
80494;SDS011;69819;48.798;11.770;2023-05-07T02:32:44;3.75;;;3.45;;
80494;SDS011;69819;48.798;11.770;2023-05-07T02:35:10;3.92;;;3.22;;
80494;SDS011;69819;48.798;11.770;2023-05-07T02:37:36;4.10;;;3.47;;
80494;SDS011;69819;48.798;11.770;2023-05-07T02:40:02;7.97;;;3.67;;
80494;SDS011;69819;48.798;11.770;2023-05-07T02:42:29;4.45;;;4.03;;
80494;SDS011;69819;48.798;11.770;2023-05-07T02:44:55;4.50;;;3.55;;
80494;SDS011;69819;48.798;11.770;2023-05-07T02:47:21;4.45;;;4.05;;
80494;SDS011;69819;48.798;11.770;2023-05-07T02:49:47;4.80;;;3.50;;
80494;SDS011;69819;48.798;11.770;2023-05-07T02:52:13;4.18;;;3.88;;
80494;SDS011;69819;48.798;11.770;2023-05-07T02:54:38;4.80;;;3.80;;
80494;SDS011;69819;48.798;11.770;2023-05-07T02:57:04;4.20;;;3.80;;
80494;SDS011;69819;48.798;11.770;2023-05-07T02:59:30;5.20;;;4.57;;
80494;SDS011;69819;48.798;11.770;2023-05-07T03:01:56;8.23;;;6.13;;
80494;SDS011;69819;48.798;11.770;2023-05-07T03:04:22;8.13;;;5.93;;
80494;SDS011;69819;48.798;11.770;2023-05-07T03:06:47;10.02;;;9.05;;
80494;SDS011;69819;48.798;11.770;2023-05-07T03:09:13;12.32;;;10.45;;
80494;SDS011;69819;48.798;11.770;2023-05-07T03:11:39;11.55;;;10.32;;
80494;SDS011;69819;48.798;11.770;2023-05-07T03:14:04;13.15;;;11.57;;
80494;SDS011;69819;48.798;11.770;2023-05-07T03:16:30;10.05;;;8.93;;
80494;SDS011;69819;48.798;11.770;2023-05-07T03:18:56;10.40;;;7.80;;
80494;SDS011;69819;48.798;11.770;2023-05-07T03:21:22;8.43;;;7.60;;
80494;SDS011;69819;48.798;11.770;2023-05-07T03:23:47;6.07;;;4.60;;
80494;SDS011;69819;48.798;11.770;2023-05-07T03:26:13;7.22;;;4.55;;
80494;SDS011;69819;48.798;11.770;2023-05-07T03:28:39;5.07;;;3.95;;
80494;SDS011;69819;48.798;11.770;2023-05-07T03:31:05;4.10;;;3.75;;
80494;SDS011;69819;48.798;11.770;2023-05-07T03:33:34;4.10;;;3.28;;
80494;SDS011;69819;48.798;11.770;2023-05-07T03:36:00;4.80;;;3.50;;
80494;SDS011;69819;48.798;11.770;2023-05-07T03:38:26;3.50;;;3.20;;
80494;SDS011;69819;48.798;11.770;2023-05-07T03:40:52;4.45;;;4.03;;
80494;SDS011;69819;48.798;11.770;2023-05-07T03:43:18;4.25;;;3.85;;
80494;SDS011;69819;48.798;11.770;2023-05-07T03:45:44;4.15;;;3.63;;
80494;SDS011;69819;48.798;11.770;2023-05-07T03:48:10;3.67;;;3.33;;
80494;SDS011;69819;48.798;11.770;2023-05-07T03:50:36;4.15;;;3.70;;
80494;SDS011;69819;48.798;11.770;2023-05-07T03:53:03;4.15;;;3.85;;
80494;SDS011;69819;48.798;11.770;2023-05-07T03:55:28;4.25;;;3.72;;
80494;SDS011;69819;48.798;11.770;2023-05-07T03:57:54;3.97;;;3.67;;
80494;SDS011;69819;48.798;11.770;2023-05-07T04:00:21;4.00;;;3.60;;
80494;SDS011;69819;48.798;11.770;2023-05-07T04:02:47;3.72;;;3.42;;
80494;SDS011;69819;48.798;11.770;2023-05-07T04:05:13;5.00;;;4.03;;
80494;SDS011;69819;48.798;11.770;2023-05-07T04:07:40;4.25;;;3.65;;
80494;SDS011;69819;48.798;11.770;2023-05-07T04:10:06;3.65;;;3.35;;
80494;SDS011;69819;48.798;11.770;2023-05-07T04:12:32;4.40;;;4.00;;
80494;SDS011;69819;48.798;11.770;2023-05-07T04:14:58;6.38;;;3.70;;
80494;SDS011;69819;48.798;11.770;2023-05-07T04:17:24;4.78;;;4.15;;
80494;SDS011;69819;48.798;11.770;2023-05-07T04:19:50;3.78;;;3.47;;
80494;SDS011;69819;48.798;11.770;2023-05-07T04:22:15;7.00;;;4.20;;
80494;SDS011;69819;48.798;11.770;2023-05-07T04:24:41;5.00;;;3.55;;
80494;SDS011;69819;48.798;11.770;2023-05-07T04:27:07;4.53;;;4.13;;
80494;SDS011;69819;48.798;11.770;2023-05-07T04:29:33;6.20;;;4.30;;
80494;SDS011;69819;48.798;11.770;2023-05-07T04:31:58;5.15;;;4.65;;
80494;SDS011;69819;48.798;11.770;2023-05-07T04:34:24;4.53;;;4.13;;
80494;SDS011;69819;48.798;11.770;2023-05-07T04:36:50;5.28;;;4.72;;
80494;SDS011;69819;48.798;11.770;2023-05-07T04:39:16;4.22;;;3.85;;
80494;SDS011;69819;48.798;11.770;2023-05-07T04:41:41;4.32;;;3.95;;
80494;SDS011;69819;48.798;11.770;2023-05-07T04:44:07;4.40;;;4.00;;
80494;SDS011;69819;48.798;11.770;2023-05-07T04:46:34;4.28;;;3.95;;
80494;SDS011;69819;48.798;11.770;2023-05-07T04:49:00;6.13;;;4.22;;
80494;SDS011;69819;48.798;11.770;2023-05-07T04:51:25;4.32;;;3.92;;
80494;SDS011;69819;48.798;11.770;2023-05-07T04:53:51;4.78;;;4.32;;
80494;SDS011;69819;48.798;11.770;2023-05-07T04:56:17;4.68;;;4.18;;
80494;SDS011;69819;48.798;11.770;2023-05-07T04:58:42;4.95;;;4.47;;
80494;SDS011;69819;48.798;11.770;2023-05-07T05:01:08;4.88;;;4.28;;
80494;SDS011;69819;48.798;11.770;2023-05-07T05:03:34;4.20;;;3.80;;
80494;SDS011;69819;48.798;11.770;2023-05-07T05:06:00;4.05;;;3.63;;
80494;SDS011;69819;48.798;11.770;2023-05-07T05:08:25;4.70;;;4.20;;
80494;SDS011;69819;48.798;11.770;2023-05-07T05:10:51;5.15;;;4.47;;
80494;SDS011;69819;48.798;11.770;2023-05-07T05:13:17;6.78;;;4.32;;
80494;SDS011;69819;48.798;11.770;2023-05-07T05:15:43;5.57;;;4.53;;
80494;SDS011;69819;48.798;11.770;2023-05-07T05:18:08;4.82;;;4.40;;
80494;SDS011;69819;48.798;11.770;2023-05-07T05:20:34;5.30;;;4.80;;
80494;SDS011;69819;48.798;11.770;2023-05-07T05:23:00;4.88;;;4.43;;
80494;SDS011;69819;48.798;11.770;2023-05-07T05:25:26;6.18;;;4.68;;
80494;SDS011;69819;48.798;11.770;2023-05-07T05:27:53;5.00;;;4.60;;
80494;SDS011;69819;48.798;11.770;2023-05-07T05:30:19;5.90;;;4.20;;
80494;SDS011;69819;48.798;11.770;2023-05-07T05:32:45;5.40;;;4.90;;
80494;SDS011;69819;48.798;11.770;2023-05-07T05:35:11;5.57;;;5.07;;
80494;SDS011;69819;48.798;11.770;2023-05-07T05:37:36;5.18;;;4.72;;
80494;SDS011;69819;48.798;11.770;2023-05-07T05:40:02;5.82;;;4.80;;
80494;SDS011;69819;48.798;11.770;2023-05-07T05:42:31;5.63;;;4.70;;
80494;SDS011;69819;48.798;11.770;2023-05-07T05:44:57;8.05;;;5.30;;
80494;SDS011;69819;48.798;11.770;2023-05-07T05:47:26;4.55;;;4.13;;
80494;SDS011;69819;48.798;11.770;2023-05-07T05:49:51;6.18;;;4.93;;
80494;SDS011;69819;48.798;11.770;2023-05-07T05:52:17;5.75;;;4.88;;
80494;SDS011;69819;48.798;11.770;2023-05-07T05:54:43;4.90;;;4.43;;
80494;SDS011;69819;48.798;11.770;2023-05-07T05:57:09;5.28;;;4.78;;
80494;SDS011;69819;48.798;11.770;2023-05-07T05:59:34;5.15;;;4.68;;
80494;SDS011;69819;48.798;11.770;2023-05-07T06:02:00;4.65;;;4.25;;
80494;SDS011;69819;48.798;11.770;2023-05-07T06:04:26;4.97;;;4.47;;
80494;SDS011;69819;48.798;11.770;2023-05-07T06:06:52;4.88;;;4.47;;
80494;SDS011;69819;48.798;11.770;2023-05-07T06:09:21;4.63;;;4.22;;
80494;SDS011;69819;48.798;11.770;2023-05-07T06:11:47;5.78;;;4.80;;
80494;SDS011;69819;48.798;11.770;2023-05-07T06:14:13;4.97;;;4.57;;
80494;SDS011;69819;48.798;11.770;2023-05-07T06:16:38;4.63;;;4.18;;
80494;SDS011;69819;48.798;11.770;2023-05-07T06:19:04;4.70;;;4.30;;
80494;SDS011;69819;48.798;11.770;2023-05-07T06:21:30;5.28;;;4.60;;
80494;SDS011;69819;48.798;11.770;2023-05-07T06:23:56;4.90;;;4.50;;
80494;SDS011;69819;48.798;11.770;2023-05-07T06:26:22;4.93;;;4.47;;
80494;SDS011;69819;48.798;11.770;2023-05-07T06:28:47;4.85;;;4.30;;
80494;SDS011;69819;48.798;11.770;2023-05-07T06:31:17;5.20;;;4.15;;
80494;SDS011;69819;48.798;11.770;2023-05-07T06:33:47;4.28;;;3.88;;
80494;SDS011;69819;48.798;11.770;2023-05-07T06:36:14;4.45;;;4.07;;
80494;SDS011;69819;48.798;11.770;2023-05-07T06:38:40;4.53;;;4.15;;
80494;SDS011;69819;48.798;11.770;2023-05-07T06:41:06;4.88;;;4.47;;
80494;SDS011;69819;48.798;11.770;2023-05-07T06:43:32;4.15;;;3.85;;
80494;SDS011;69819;48.798;11.770;2023-05-07T06:45:58;4.18;;;3.78;;
80494;SDS011;69819;48.798;11.770;2023-05-07T06:48:24;4.30;;;3.90;;
80494;SDS011;69819;48.798;11.770;2023-05-07T06:50:50;4.07;;;3.75;;
80494;SDS011;69819;48.798;11.770;2023-05-07T06:53:16;3.92;;;3.63;;
80494;SDS011;69819;48.798;11.770;2023-05-07T06:55:41;3.70;;;3.40;;
80494;SDS011;69819;48.798;11.770;2023-05-07T06:58:07;4.50;;;3.55;;
80494;SDS011;69819;48.798;11.770;2023-05-07T07:00:33;3.90;;;3.60;;
80494;SDS011;69819;48.798;11.770;2023-05-07T07:02:59;4.25;;;3.85;;
80494;SDS011;69819;48.798;11.770;2023-05-07T07:05:25;4.32;;;3.95;;
80494;SDS011;69819;48.798;11.770;2023-05-07T07:07:51;4.15;;;3.75;;
80494;SDS011;69819;48.798;11.770;2023-05-07T07:10:19;4.03;;;3.70;;
80494;SDS011;69819;48.798;11.770;2023-05-07T07:12:46;4.38;;;3.97;;
80494;SDS011;69819;48.798;11.770;2023-05-07T07:15:12;3.58;;;3.25;;
80494;SDS011;69819;48.798;11.770;2023-05-07T07:17:39;4.78;;;4.00;;
80494;SDS011;69819;48.798;11.770;2023-05-07T07:20:05;4.00;;;3.55;;
80494;SDS011;69819;48.798;11.770;2023-05-07T07:22:31;3.90;;;3.60;;
80494;SDS011;69819;48.798;11.770;2023-05-07T07:24:57;3.50;;;3.25;;
80494;SDS011;69819;48.798;11.770;2023-05-07T07:27:23;4.10;;;3.38;;
80494;SDS011;69819;48.798;11.770;2023-05-07T07:29:49;4.38;;;3.40;;
80494;SDS011;69819;48.798;11.770;2023-05-07T07:32:15;4.47;;;4.00;;
80494;SDS011;69819;48.798;11.770;2023-05-07T07:34:40;3.92;;;3.33;;
80494;SDS011;69819;48.798;11.770;2023-05-07T07:37:06;3.67;;;3.38;;
80494;SDS011;69819;48.798;11.770;2023-05-07T07:39:32;4.13;;;3.80;;
80494;SDS011;69819;48.798;11.770;2023-05-07T07:41:58;4.03;;;3.25;;
80494;SDS011;69819;48.798;11.770;2023-05-07T07:44:24;5.20;;;3.70;;
80494;SDS011;69819;48.798;11.770;2023-05-07T07:46:52;3.42;;;3.13;;
80494;SDS011;69819;48.798;11.770;2023-05-07T07:49:18;3.95;;;3.65;;
80494;SDS011;69819;48.798;11.770;2023-05-07T07:51:44;4.03;;;3.55;;
80494;SDS011;69819;48.798;11.770;2023-05-07T07:54:10;3.80;;;3.47;;
80494;SDS011;69819;48.798;11.770;2023-05-07T07:56:37;5.10;;;3.90;;
80494;SDS011;69819;48.798;11.770;2023-05-07T07:59:03;4.28;;;3.42;;
80494;SDS011;69819;48.798;11.770;2023-05-07T08:01:29;3.85;;;3.47;;
80494;SDS011;69819;48.798;11.770;2023-05-07T08:03:56;5.00;;;3.45;;
80494;SDS011;69819;48.798;11.770;2023-05-07T08:06:23;3.38;;;3.05;;
80494;SDS011;69819;48.798;11.770;2023-05-07T08:08:50;3.97;;;3.47;;
80494;SDS011;69819;48.798;11.770;2023-05-07T08:11:20;4.30;;;3.40;;
80494;SDS011;69819;48.798;11.770;2023-05-07T08:13:46;3.50;;;3.20;;
80494;SDS011;69819;48.798;11.770;2023-05-07T08:16:12;6.15;;;3.45;;
80494;SDS011;69819;48.798;11.770;2023-05-07T08:18:39;3.80;;;3.47;;
80494;SDS011;69819;48.798;11.770;2023-05-07T08:21:04;3.83;;;3.53;;
80494;SDS011;69819;48.798;11.770;2023-05-07T08:23:30;3.45;;;3.25;;
80494;SDS011;69819;48.798;11.770;2023-05-07T08:25:56;3.40;;;3.05;;
80494;SDS011;69819;48.798;11.770;2023-05-07T08:28:22;3.58;;;3.35;;
80494;SDS011;69819;48.798;11.770;2023-05-07T08:30:49;3.55;;;3.25;;
80494;SDS011;69819;48.798;11.770;2023-05-07T08:33:15;4.72;;;3.60;;
80494;SDS011;69819;48.798;11.770;2023-05-07T08:35:41;3.80;;;3.50;;
80494;SDS011;69819;48.798;11.770;2023-05-07T08:38:07;3.90;;;3.60;;
80494;SDS011;69819;48.798;11.770;2023-05-07T08:40:39;3.38;;;3.17;;
80494;SDS011;69819;48.798;11.770;2023-05-07T08:43:06;3.13;;;2.90;;
80494;SDS011;69819;48.798;11.770;2023-05-07T08:45:33;3.90;;;3.60;;
80494;SDS011;69819;48.798;11.770;2023-05-07T08:48:01;3.47;;;3.17;;
80494;SDS011;69819;48.798;11.770;2023-05-07T08:50:35;3.35;;;3.05;;
80494;SDS011;69819;48.798;11.770;2023-05-07T08:53:02;3.65;;;3.33;;
80494;SDS011;69819;48.798;11.770;2023-05-07T08:55:30;3.70;;;3.40;;
80494;SDS011;69819;48.798;11.770;2023-05-07T08:57:58;3.30;;;3.03;;
80494;SDS011;69819;48.798;11.770;2023-05-07T09:00:25;4.13;;;3.33;;
80494;SDS011;69819;48.798;11.770;2023-05-07T09:02:51;4.60;;;3.35;;
80494;SDS011;69819;48.798;11.770;2023-05-07T09:05:18;3.42;;;3.13;;
80494;SDS011;69819;48.798;11.770;2023-05-07T09:07:45;3.55;;;3.25;;
80494;SDS011;69819;48.798;11.770;2023-05-07T09:10:11;4.00;;;3.60;;
80494;SDS011;69819;48.798;11.770;2023-05-07T09:12:38;3.35;;;3.08;;
80494;SDS011;69819;48.798;11.770;2023-05-07T09:15:05;3.60;;;2.95;;
80494;SDS011;69819;48.798;11.770;2023-05-07T09:17:31;3.75;;;3.45;;
80494;SDS011;69819;48.798;11.770;2023-05-07T09:20:05;3.38;;;3.08;;
80494;SDS011;69819;48.798;11.770;2023-05-07T09:22:32;3.03;;;2.83;;
80494;SDS011;69819;48.798;11.770;2023-05-07T09:25:01;2.53;;;2.40;;
80494;SDS011;69819;48.798;11.770;2023-05-07T09:27:26;3.38;;;3.10;;
80494;SDS011;69819;48.798;11.770;2023-05-07T09:29:52;3.40;;;3.10;;
80494;SDS011;69819;48.798;11.770;2023-05-07T09:32:18;3.42;;;2.67;;
80494;SDS011;69819;48.798;11.770;2023-05-07T09:34:44;3.72;;;2.65;;
80494;SDS011;69819;48.798;11.770;2023-05-07T09:37:10;3.33;;;3.13;;
80494;SDS011;69819;48.798;11.770;2023-05-07T09:42:05;3.20;;;2.90;;
80494;SDS011;69819;48.798;11.770;2023-05-07T09:44:32;3.50;;;3.03;;
80494;SDS011;69819;48.798;11.770;2023-05-07T09:47:00;4.25;;;2.88;;
80494;SDS011;69819;48.798;11.770;2023-05-07T09:49:30;2.95;;;2.75;;
80494;SDS011;69819;48.798;11.770;2023-05-07T09:52:00;3.65;;;3.10;;
80494;SDS011;69819;48.798;11.770;2023-05-07T09:54:27;2.75;;;2.55;;
80494;SDS011;69819;48.798;11.770;2023-05-07T09:56:54;4.35;;;2.90;;
80494;SDS011;69819;48.798;11.770;2023-05-07T09:59:21;2.90;;;2.70;;
80494;SDS011;69819;48.798;11.770;2023-05-07T10:01:47;2.85;;;2.65;;
80494;SDS011;69819;48.798;11.770;2023-05-07T10:04:17;3.72;;;3.17;;
80494;SDS011;69819;48.798;11.770;2023-05-07T10:06:44;2.83;;;2.58;;
80494;SDS011;69819;48.798;11.770;2023-05-07T10:09:11;2.55;;;2.35;;
80494;SDS011;69819;48.798;11.770;2023-05-07T10:11:40;2.80;;;2.55;;
80494;SDS011;69819;48.798;11.770;2023-05-07T10:14:06;3.03;;;2.53;;
80494;SDS011;69819;48.798;11.770;2023-05-07T10:16:34;2.28;;;2.08;;
80494;SDS011;69819;48.798;11.770;2023-05-07T10:19:05;2.88;;;2.67;;
80494;SDS011;69819;48.798;11.770;2023-05-07T10:21:38;3.45;;;2.70;;
80494;SDS011;69819;48.798;11.770;2023-05-07T10:24:25;2.60;;;2.40;;
80494;SDS011;69819;48.798;11.770;2023-05-07T10:26:54;2.15;;;2.05;;
80494;SDS011;69819;48.798;11.770;2023-05-07T10:29:29;2.88;;;2.42;;
80494;SDS011;69819;48.798;11.770;2023-05-07T10:35:16;2.80;;;2.00;;
80494;SDS011;69819;48.798;11.770;2023-05-07T10:37:46;2.03;;;1.92;;
80494;SDS011;69819;48.798;11.770;2023-05-07T10:40:13;3.05;;;2.17;;
80494;SDS011;69819;48.798;11.770;2023-05-07T10:42:52;2.60;;;2.40;;
80494;SDS011;69819;48.798;11.770;2023-05-07T10:45:20;2.38;;;2.20;;
80494;SDS011;69819;48.798;11.770;2023-05-07T10:50:44;2.88;;;2.20;;
80494;SDS011;69819;48.798;11.770;2023-05-07T10:55:49;2.70;;;1.95;;
80494;SDS011;69819;48.798;11.770;2023-05-07T10:58:36;2.25;;;2.10;;
80494;SDS011;69819;48.798;11.770;2023-05-07T11:01:02;2.10;;;2.00;;
80494;SDS011;69819;48.798;11.770;2023-05-07T11:03:29;2.60;;;2.28;;
80494;SDS011;69819;48.798;11.770;2023-05-07T11:08:55;3.03;;;2.42;;
80494;SDS011;69819;48.798;11.770;2023-05-07T11:11:44;4.03;;;2.38;;
80494;SDS011;69819;48.798;11.770;2023-05-07T11:17:08;4.28;;;2.20;;
80494;SDS011;69819;48.798;11.770;2023-05-07T11:19:51;2.45;;;1.83;;
80494;SDS011;69819;48.798;11.770;2023-05-07T11:22:54;2.60;;;1.77;;
80494;SDS011;69819;48.798;11.770;2023-05-07T11:25:19;1.88;;;1.77;;
80494;SDS011;69819;48.798;11.770;2023-05-07T11:27:47;3.08;;;2.08;;
80494;SDS011;69819;48.798;11.770;2023-05-07T11:30:17;3.08;;;2.10;;
80494;SDS011;69819;48.798;11.770;2023-05-07T11:32:47;2.72;;;2.00;;
80494;SDS011;69819;48.798;11.770;2023-05-07T11:35:13;3.28;;;2.17;;
80494;SDS011;69819;48.798;11.770;2023-05-07T11:37:41;2.45;;;1.85;;
80494;SDS011;69819;48.798;11.770;2023-05-07T11:40:10;2.05;;;1.85;;
80494;SDS011;69819;48.798;11.770;2023-05-07T11:42:39;2.35;;;1.92;;
80494;SDS011;69819;48.798;11.770;2023-05-07T11:45:07;1.65;;;1.55;;
80494;SDS011;69819;48.798;11.770;2023-05-07T11:47:34;1.95;;;1.83;;
80494;SDS011;69819;48.798;11.770;2023-05-07T11:50:04;1.90;;;1.80;;
80494;SDS011;69819;48.798;11.770;2023-05-07T11:52:32;1.90;;;1.80;;
80494;SDS011;69819;48.798;11.770;2023-05-07T11:54:59;2.38;;;1.85;;
80494;SDS011;69819;48.798;11.770;2023-05-07T11:57:26;1.60;;;1.50;;
80494;SDS011;69819;48.798;11.770;2023-05-07T11:59:57;1.77;;;1.58;;
80494;SDS011;69819;48.798;11.770;2023-05-07T12:02:25;2.10;;;1.73;;
80494;SDS011;69819;48.798;11.770;2023-05-07T12:04:51;2.00;;;1.73;;
80494;SDS011;69819;48.798;11.770;2023-05-07T12:07:18;1.52;;;1.42;;
80494;SDS011;69819;48.798;11.770;2023-05-07T12:09:44;1.67;;;1.58;;
80494;SDS011;69819;48.798;11.770;2023-05-07T12:12:11;1.90;;;1.80;;
80494;SDS011;69819;48.798;11.770;2023-05-07T12:14:41;1.88;;;1.70;;
80494;SDS011;69819;48.798;11.770;2023-05-07T12:17:09;1.77;;;1.67;;
80494;SDS011;69819;48.798;11.770;2023-05-07T12:19:38;1.98;;;1.77;;
80494;SDS011;69819;48.798;11.770;2023-05-07T12:22:09;1.60;;;1.30;;
80494;SDS011;69819;48.798;11.770;2023-05-07T12:29:47;1.80;;;1.70;;
80494;SDS011;69819;48.798;11.770;2023-05-07T12:32:18;1.67;;;1.58;;
80494;SDS011;69819;48.798;11.770;2023-05-07T12:34:47;1.85;;;1.63;;
80494;SDS011;69819;48.798;11.770;2023-05-07T12:37:16;1.70;;;1.60;;
80494;SDS011;69819;48.798;11.770;2023-05-07T12:39:48;3.67;;;1.73;;
80494;SDS011;69819;48.798;11.770;2023-05-07T12:42:32;1.63;;;1.50;;
80494;SDS011;69819;48.798;11.770;2023-05-07T12:45:11;2.45;;;1.73;;
80494;SDS011;69819;48.798;11.770;2023-05-07T12:47:44;2.40;;;1.83;;
80494;SDS011;69819;48.798;11.770;2023-05-07T12:50:10;1.80;;;1.70;;
80494;SDS011;69819;48.798;11.770;2023-05-07T12:52:37;1.70;;;1.60;;
80494;SDS011;69819;48.798;11.770;2023-05-07T12:55:06;3.40;;;1.67;;
80494;SDS011;69819;48.798;11.770;2023-05-07T12:57:43;1.98;;;1.38;;
80494;SDS011;69819;48.798;11.770;2023-05-07T13:00:17;2.83;;;1.70;;
80494;SDS011;69819;48.798;11.770;2023-05-07T13:03:02;2.67;;;1.27;;
80494;SDS011;69819;48.798;11.770;2023-05-07T13:05:27;2.33;;;1.45;;
80494;SDS011;69819;48.798;11.770;2023-05-07T13:07:54;1.60;;;1.50;;
80494;SDS011;69819;48.798;11.770;2023-05-07T13:10:21;2.13;;;1.55;;
80494;SDS011;69819;48.798;11.770;2023-05-07T13:12:51;1.42;;;1.33;;
80494;SDS011;69819;48.798;11.770;2023-05-07T13:15:17;1.60;;;1.50;;
80494;SDS011;69819;48.798;11.770;2023-05-07T13:17:44;1.65;;;1.50;;
80494;SDS011;69819;48.798;11.770;2023-05-07T13:20:10;1.38;;;1.27;;
80494;SDS011;69819;48.798;11.770;2023-05-07T13:22:37;1.75;;;1.60;;
80494;SDS011;69819;48.798;11.770;2023-05-07T13:25:05;2.85;;;1.48;;
80494;SDS011;69819;48.798;11.770;2023-05-07T13:27:31;1.60;;;1.50;;
80494;SDS011;69819;48.798;11.770;2023-05-07T13:30:00;1.52;;;1.42;;
80494;SDS011;69819;48.798;11.770;2023-05-07T13:32:26;2.17;;;1.98;;
80494;SDS011;69819;48.798;11.770;2023-05-07T13:34:52;3.00;;;1.98;;
80494;SDS011;69819;48.798;11.770;2023-05-07T13:37:17;2.13;;;1.75;;
80494;SDS011;69819;48.798;11.770;2023-05-07T13:39:43;1.63;;;1.52;;
80494;SDS011;69819;48.798;11.770;2023-05-07T13:42:09;2.30;;;1.50;;
80494;SDS011;69819;48.798;11.770;2023-05-07T13:44:35;1.27;;;1.27;;
80494;SDS011;69819;48.798;11.770;2023-05-07T13:47:01;1.83;;;1.42;;
80494;SDS011;69819;48.798;11.770;2023-05-07T13:49:27;1.95;;;1.67;;
80494;SDS011;69819;48.798;11.770;2023-05-07T13:51:53;1.90;;;1.80;;
80494;SDS011;69819;48.798;11.770;2023-05-07T13:54:18;1.77;;;1.67;;
80494;SDS011;69819;48.798;11.770;2023-05-07T13:56:44;1.88;;;1.77;;
80494;SDS011;69819;48.798;11.770;2023-05-07T13:59:10;1.58;;;1.48;;
80494;SDS011;69819;48.798;11.770;2023-05-07T14:01:36;2.33;;;1.50;;
80494;SDS011;69819;48.798;11.770;2023-05-07T14:04:01;1.52;;;1.42;;
80494;SDS011;69819;48.798;11.770;2023-05-07T14:06:28;1.88;;;1.60;;
80494;SDS011;69819;48.798;11.770;2023-05-07T14:08:53;1.63;;;1.52;;
80494;SDS011;69819;48.798;11.770;2023-05-07T14:11:19;1.58;;;1.48;;
80494;SDS011;69819;48.798;11.770;2023-05-07T14:13:46;1.80;;;1.70;;
80494;SDS011;69819;48.798;11.770;2023-05-07T14:16:11;1.90;;;1.50;;
80494;SDS011;69819;48.798;11.770;2023-05-07T14:18:37;1.70;;;1.60;;
80494;SDS011;69819;48.798;11.770;2023-05-07T14:21:04;3.88;;;1.77;;
80494;SDS011;69819;48.798;11.770;2023-05-07T14:23:31;1.65;;;1.55;;
80494;SDS011;69819;48.798;11.770;2023-05-07T14:25:57;2.78;;;1.90;;
80494;SDS011;69819;48.798;11.770;2023-05-07T14:28:23;1.58;;;1.48;;
80494;SDS011;69819;48.798;11.770;2023-05-07T14:30:49;3.45;;;1.60;;
80494;SDS011;69819;48.798;11.770;2023-05-07T14:33:15;1.67;;;1.52;;
80494;SDS011;69819;48.798;11.770;2023-05-07T14:35:42;3.33;;;1.75;;
80494;SDS011;69819;48.798;11.770;2023-05-07T14:38:12;2.40;;;1.50;;
80494;SDS011;69819;48.798;11.770;2023-05-07T14:40:38;1.65;;;1.55;;
80494;SDS011;69819;48.798;11.770;2023-05-07T14:43:04;1.48;;;1.35;;
80494;SDS011;69819;48.798;11.770;2023-05-07T14:45:30;2.00;;;1.27;;
80494;SDS011;69819;48.798;11.770;2023-05-07T14:47:55;1.58;;;1.48;;
80494;SDS011;69819;48.798;11.770;2023-05-07T14:50:21;1.80;;;1.30;;
80494;SDS011;69819;48.798;11.770;2023-05-07T14:52:47;1.70;;;1.55;;
80494;SDS011;69819;48.798;11.770;2023-05-07T14:55:13;1.60;;;1.50;;